createdAt,value
2016-03-14T00:00:47.386Z,0
2016-03-14T00:02:03.360Z,0
2016-03-14T00:02:50.548Z,0
2016-03-14T00:04:03.397Z,0
2016-03-14T00:04:51.834Z,0
2016-03-14T00:06:46.808Z,0
2016-03-14T00:06:59.358Z,0
2016-03-14T00:07:59.455Z,0
2016-03-14T00:09:06.270Z,0
2016-03-14T00:10:12.131Z,0
2016-03-14T00:10:59.381Z,0
2016-03-14T00:12:18.716Z,0
2016-03-14T00:12:59.434Z,0
2016-03-14T00:13:59.471Z,0
2016-03-14T00:15:12.192Z,0
2016-03-14T00:16:12.054Z,0
2016-03-14T00:16:59.605Z,0
2016-03-14T00:17:59.511Z,0
2016-03-14T00:18:59.578Z,0
2016-03-14T00:19:59.485Z,0
2016-03-14T00:21:12.271Z,0
2016-03-14T00:21:59.521Z,0
2016-03-14T00:23:12.276Z,0
2016-03-14T00:24:00.154Z,0
2016-03-14T00:25:18.750Z,0
2016-03-14T00:26:02.674Z,0
2016-03-14T00:27:02.646Z,0
2016-03-14T00:28:02.680Z,0
2016-03-14T00:29:02.667Z,0
2016-03-14T00:30:03.310Z,0
2016-03-14T00:31:02.688Z,0
2016-03-14T00:32:15.440Z,0
2016-03-14T00:33:02.725Z,0
2016-03-14T00:34:28.400Z,0
2016-03-14T00:35:15.480Z,0
2016-03-14T00:36:34.265Z,0
2016-03-14T00:37:21.986Z,0
2016-03-14T00:38:02.754Z,0
2016-03-14T00:39:34.084Z,0
2016-03-14T00:40:02.806Z,0
2016-03-14T00:41:02.824Z,0
2016-03-14T00:42:09.061Z,0
2016-03-14T00:43:15.736Z,0
2016-03-14T00:44:15.614Z,0
2016-03-14T00:45:28.507Z,0
2016-03-14T00:46:02.869Z,0
2016-03-14T00:48:22.077Z,0
2016-03-14T00:49:03.486Z,0
2016-03-14T00:50:28.599Z,0
2016-03-14T00:51:15.648Z,0
2016-03-14T00:52:02.948Z,0
2016-03-14T00:53:22.138Z,0
2016-03-14T00:54:09.281Z,0
2016-03-14T00:56:12.537Z,0
2016-03-14T00:57:12.649Z,0
2016-03-14T00:58:14.015Z,0
2016-03-14T00:59:25.342Z,0
2016-03-14T01:00:25.955Z,0
2016-03-14T01:01:31.946Z,0
2016-03-14T01:02:12.844Z,0
2016-03-14T01:03:38.300Z,0
2016-03-14T01:04:22.161Z,0
2016-03-14T01:05:22.180Z,0
2016-03-14T01:06:34.777Z,0
2016-03-14T01:07:22.247Z,0
2016-03-14T01:09:19.206Z,0
2016-03-14T01:09:31.925Z,0
2016-03-14T01:10:31.819Z,0
2016-03-14T01:11:51.008Z,0
2016-03-14T01:12:31.808Z,0
2016-03-14T01:13:31.811Z,0
2016-03-14T01:14:31.673Z,0
2016-03-14T01:15:51.035Z,0
2016-03-14T01:16:31.881Z,0
2016-03-14T01:17:31.899Z,0
2016-03-14T01:18:31.856Z,0
2016-03-14T01:19:31.890Z,0
2016-03-14T01:20:32.173Z,0
2016-03-14T01:21:44.629Z,0
2016-03-14T01:22:44.726Z,0
2016-03-14T01:24:28.918Z,0
2016-03-14T01:24:41.481Z,0
2016-03-14T01:26:00.939Z,0
2016-03-14T01:26:47.783Z,0
2016-03-14T01:27:41.364Z,0
2016-03-14T01:28:54.273Z,0
2016-03-14T01:29:41.526Z,0
2016-03-14T01:30:41.638Z,0
2016-03-14T01:31:41.531Z,0
2016-03-14T01:32:54.456Z,0
2016-03-14T01:33:47.817Z,0
2016-03-14T01:34:41.617Z,0
2016-03-14T01:35:54.308Z,0
2016-03-14T01:36:43.013Z,0
2016-03-14T01:38:00.800Z,0
2016-03-14T01:38:43.034Z,0
2016-03-14T01:39:41.616Z,0
2016-03-14T01:40:41.649Z,0
2016-03-14T01:41:41.699Z,0
2016-03-14T01:42:41.655Z,0
2016-03-14T01:43:47.954Z,0
2016-03-14T01:44:41.660Z,0
2016-03-14T01:45:41.819Z,0
2016-03-14T01:46:42.524Z,0
2016-03-14T01:47:41.762Z,0
2016-03-14T01:48:54.468Z,0
2016-03-14T01:49:43.173Z,0
2016-03-14T01:50:41.754Z,0
2016-03-14T01:51:41.788Z,0
2016-03-14T01:52:41.743Z,0
2016-03-14T01:53:41.762Z,0
2016-03-14T01:54:48.076Z,0
2016-03-14T01:55:41.799Z,0
2016-03-14T01:56:42.020Z,0
2016-03-14T01:57:54.554Z,0
2016-03-14T01:58:41.854Z,0
2016-03-14T02:00:01.125Z,0
2016-03-14T02:00:54.734Z,0
2016-03-14T02:01:41.878Z,0
2016-03-14T02:03:07.773Z,0
2016-03-14T02:03:41.883Z,0
2016-03-14T02:05:46.061Z,0
2016-03-14T02:05:58.701Z,0
2016-03-14T02:06:58.656Z,0
2016-03-14T02:07:58.956Z,0
2016-03-14T02:08:58.662Z,0
2016-03-14T02:10:11.527Z,0
2016-03-14T02:11:11.436Z,0
2016-03-14T02:11:58.764Z,0
2016-03-14T02:12:58.719Z,0
2016-03-14T02:15:01.899Z,0
2016-03-14T02:16:01.918Z,0
2016-03-14T02:17:14.671Z,0
2016-03-14T02:18:01.970Z,0
2016-03-14T02:19:01.926Z,0
2016-03-14T02:20:01.944Z,0
2016-03-14T02:21:02.056Z,0
2016-03-14T02:22:02.637Z,0
2016-03-14T02:23:02.092Z,0
2016-03-14T02:24:03.424Z,0
2016-03-14T02:25:02.176Z,0
2016-03-14T02:26:03.429Z,0
2016-03-14T02:27:14.760Z,0
2016-03-14T02:28:02.059Z,0
2016-03-14T02:30:11.581Z,0
2016-03-14T02:31:24.333Z,0
2016-03-14T02:32:17.992Z,0
2016-03-14T02:33:11.666Z,0
2016-03-14T02:34:30.842Z,0
2016-03-14T02:35:11.719Z,0
2016-03-14T02:36:11.644Z,0
2016-03-14T02:37:11.693Z,0
2016-03-14T02:38:11.664Z,0
2016-03-14T02:39:11.823Z,0
2016-03-14T02:40:24.639Z,0
2016-03-14T02:41:24.438Z,0
2016-03-14T02:42:24.471Z,0
2016-03-14T02:43:30.913Z,0
2016-03-14T02:44:11.618Z,0
2016-03-14T02:45:37.418Z,0
2016-03-14T02:46:21.311Z,0
2016-03-14T02:47:21.391Z,0
2016-03-14T02:48:21.668Z,0
2016-03-14T02:49:21.315Z,0
2016-03-14T02:50:21.319Z,0
2016-03-14T02:51:21.309Z,0
2016-03-14T02:52:21.347Z,0
2016-03-14T02:53:21.310Z,0
2016-03-14T02:54:21.622Z,0
2016-03-14T02:55:27.634Z,0
2016-03-14T02:56:21.446Z,0
2016-03-14T02:57:27.850Z,0
2016-03-14T02:58:21.380Z,0
2016-03-14T02:59:40.803Z,0
2016-03-14T03:00:27.618Z,0
2016-03-14T03:01:21.353Z,0
2016-03-14T03:02:21.401Z,0
2016-03-14T03:03:27.637Z,0
2016-03-14T03:04:21.577Z,0
2016-03-14T03:05:21.359Z,0
2016-03-14T03:06:27.673Z,0
2016-03-14T03:07:21.395Z,0
2016-03-14T03:08:40.600Z,0
2016-03-14T03:09:21.541Z,0
2016-03-14T03:10:52.746Z,0
2016-03-14T03:11:34.265Z,0
2016-03-14T03:12:21.454Z,0
2016-03-14T03:13:40.786Z,0
2016-03-14T03:14:21.710Z,0
2016-03-14T03:16:24.137Z,0
2016-03-14T03:16:36.715Z,0
2016-03-14T03:17:36.735Z,0
2016-03-14T03:18:36.737Z,0
2016-03-14T03:19:49.630Z,0
2016-03-14T03:20:36.882Z,0
2016-03-14T03:21:36.792Z,0
2016-03-14T03:22:36.825Z,0
2016-03-14T03:23:36.812Z,0
2016-03-14T03:24:49.518Z,0
2016-03-14T03:25:36.662Z,0
2016-03-14T03:26:49.555Z,0
2016-03-14T03:27:49.558Z,0
2016-03-14T03:28:36.825Z,0
2016-03-14T03:29:56.094Z,0
2016-03-14T03:30:36.847Z,0
2016-03-14T03:32:02.631Z,0
2016-03-14T03:32:47.197Z,0
2016-03-14T03:33:46.558Z,0
2016-03-14T03:34:46.545Z,0
2016-03-14T03:35:46.595Z,0
2016-03-14T03:36:46.598Z,0
2016-03-14T03:37:46.631Z,0
2016-03-14T03:38:46.572Z,0
2016-03-14T03:39:52.840Z,0
2016-03-14T03:40:52.858Z,0
2016-03-14T03:41:52.861Z,0
2016-03-14T03:43:05.819Z,0
2016-03-14T03:43:46.616Z,0
2016-03-14T03:45:43.590Z,0
2016-03-14T03:45:56.199Z,0
2016-03-14T03:46:56.171Z,0
2016-03-14T03:47:56.173Z,0
2016-03-14T03:48:56.802Z,0
2016-03-14T03:49:56.210Z,0
2016-03-14T03:50:56.213Z,0
2016-03-14T03:51:56.918Z,0
2016-03-14T03:52:56.813Z,0
2016-03-14T03:53:56.237Z,0
2016-03-14T03:54:57.521Z,0
2016-03-14T03:55:56.242Z,0
2016-03-14T03:56:56.261Z,0
2016-03-14T03:57:56.263Z,0
2016-03-14T03:59:09.050Z,0
2016-03-14T03:59:56.315Z,0
2016-03-14T04:01:53.274Z,0
2016-03-14T04:02:25.073Z,0
2016-03-14T04:03:25.107Z,0
2016-03-14T04:04:18.610Z,0
2016-03-14T04:05:25.175Z,0
2016-03-14T04:06:32.053Z,0
2016-03-14T04:08:28.293Z,0
2016-03-14T04:10:12.814Z,0
2016-03-14T04:10:44.580Z,0
2016-03-14T04:11:25.395Z,0
2016-03-14T04:12:51.132Z,0
2016-03-14T04:13:35.306Z,0
2016-03-14T04:15:00.480Z,0
2016-03-14T04:15:50.608Z,0
2016-03-14T04:17:10.036Z,0
2016-03-14T04:17:44.974Z,0
2016-03-14T04:19:47.025Z,0
2016-03-14T04:19:59.603Z,0
2016-03-14T04:20:59.668Z,0
2016-03-14T04:21:59.640Z,0
2016-03-14T04:22:59.784Z,0
2016-03-14T04:24:06.008Z,0
2016-03-14T04:25:12.479Z,0
2016-03-14T04:28:40.535Z,0
2016-03-14T04:29:27.771Z,0
2016-03-14T04:33:50.392Z,0
2016-03-14T04:34:50.223Z,0
2016-03-14T04:36:02.991Z,0
2016-03-14T04:38:31.186Z,0
2016-03-14T04:39:31.064Z,0
2016-03-14T04:40:32.411Z,0
2016-03-14T04:41:43.882Z,0
2016-03-14T04:42:43.931Z,0
2016-03-14T04:44:47.359Z,0
2016-03-14T04:44:59.937Z,0
2016-03-14T04:46:31.239Z,0
2016-03-14T04:47:09.476Z,0
2016-03-14T04:49:12.246Z,0
2016-03-14T04:49:24.824Z,0
2016-03-14T04:50:25.109Z,0
2016-03-14T04:51:26.284Z,0
2016-03-14T04:52:31.193Z,0
2016-03-14T04:53:37.617Z,0
2016-03-14T04:54:44.167Z,0
2016-03-14T04:55:37.545Z,0
2016-03-14T04:57:40.253Z,0
2016-03-14T04:58:40.178Z,0
2016-03-14T04:59:52.992Z,0
2016-03-14T05:00:52.901Z,0
2016-03-14T05:01:59.436Z,0
2016-03-14T05:02:56.079Z,0
2016-03-14T05:04:09.194Z,0
2016-03-14T05:04:43.600Z,0
2016-03-14T05:06:35.292Z,4
2016-03-14T05:07:00.589Z,4
2016-03-14T05:07:47.873Z,4
2016-03-14T05:09:44.942Z,0
2016-03-14T05:09:57.551Z,4
2016-03-14T05:10:57.569Z,4
2016-03-14T05:11:57.759Z,4
2016-03-14T05:13:03.840Z,4
2016-03-14T05:14:04.077Z,4
2016-03-14T05:15:11.974Z,4
2016-03-14T05:16:17.038Z,8
2016-03-14T05:16:57.616Z,12
2016-03-14T05:18:23.887Z,12
2016-03-14T05:19:02.184Z,16
2016-03-14T05:21:04.783Z,16
2016-03-14T05:21:43.036Z,20
2016-03-14T05:22:17.335Z,20
2016-03-14T05:24:14.340Z,28
2016-03-14T05:24:26.918Z,32
2016-03-14T05:25:58.265Z,40
2016-03-14T05:26:30.034Z,44
2016-03-14T05:27:30.037Z,52
2016-03-14T05:28:30.164Z,60
2016-03-14T05:29:30.089Z,72
2016-03-14T05:30:42.950Z,84
2016-03-14T05:31:45.719Z,100
2016-03-14T05:32:49.331Z,116
2016-03-14T05:33:55.943Z,136
2016-03-14T05:34:56.445Z,152
2016-03-14T05:38:15.036Z,208
2016-03-14T05:39:24.678Z,216
2016-03-14T05:40:08.619Z,236
2016-03-14T05:41:27.839Z,252
2016-03-14T05:43:11.408Z,300
2016-03-14T05:43:43.205Z,312
2016-03-14T05:45:46.444Z,372
2016-03-14T05:45:58.975Z,384
2016-03-14T05:47:30.371Z,444
2016-03-14T05:48:09.202Z,480
2016-03-14T05:50:05.596Z,580
2016-03-14T05:50:18.207Z,592
2016-03-14T05:52:20.807Z,700
2016-03-14T05:52:59.119Z,728
2016-03-14T05:53:33.372Z,760
2016-03-14T05:56:14.599Z,880
2016-03-14T05:56:48.865Z,920
2016-03-14T05:59:04.292Z,1008
2016-03-14T06:00:04.137Z,1068
2016-03-14T06:01:04.375Z,1092
2016-03-14T06:02:04.159Z,1156
2016-03-14T06:03:04.115Z,1224
2016-03-14T06:04:04.195Z,1308
2016-03-14T06:05:04.136Z,1388
2016-03-14T06:06:04.065Z,1476
2016-03-14T06:07:04.131Z,1580
2016-03-14T06:08:16.886Z,1656
2016-03-14T06:09:10.655Z,1736
2016-03-14T06:10:23.344Z,1804
2016-03-14T06:11:04.188Z,1848
2016-03-14T06:12:29.849Z,1944
2016-03-14T06:14:38.574Z,2032
2016-03-14T06:15:07.421Z,2060
2016-03-14T06:16:38.626Z,2156
2016-03-14T06:17:22.566Z,2184
2016-03-14T06:18:22.787Z,2216
2016-03-14T06:19:35.275Z,2232
2016-03-14T06:20:35.262Z,2256
2016-03-14T06:22:19.548Z,2328
2016-03-14T06:24:23.335Z,2360
2016-03-14T06:24:48.867Z,2372
2016-03-14T06:25:48.713Z,2364
2016-03-14T06:26:48.872Z,2332
2016-03-14T06:27:48.765Z,2348
2016-03-14T06:29:01.455Z,2392
2016-03-14T06:29:48.770Z,2456
2016-03-14T06:31:45.714Z,2776
2016-03-14T06:31:58.339Z,2796
2016-03-14T06:33:11.094Z,2780
2016-03-14T06:34:17.534Z,2760
2016-03-14T06:37:04.149Z,3264
2016-03-14T06:37:39.136Z,3300
2016-03-14T06:38:32.873Z,3332
2016-03-14T06:39:45.610Z,3628
2016-03-14T06:40:33.003Z,3576
2016-03-14T06:41:52.099Z,3988
2016-03-14T06:42:32.994Z,4076
2016-03-14T06:43:52.121Z,3800
2016-03-14T06:44:33.014Z,3980
2016-03-14T06:46:29.926Z,3820
2016-03-14T06:46:42.519Z,3852
2016-03-14T06:48:01.724Z,4048
2016-03-14T06:48:45.634Z,3944
2016-03-14T06:49:45.637Z,4016
2016-03-14T06:50:46.358Z,4352
2016-03-14T06:52:42.801Z,4864
2016-03-14T06:53:21.319Z,4784
2016-03-14T06:55:30.340Z,4768
2016-03-14T06:56:05.309Z,4872
2016-03-14T06:56:59.046Z,4880
2016-03-14T06:58:18.270Z,4852
2016-03-14T06:59:05.473Z,4980
2016-03-14T07:00:30.448Z,4732
2016-03-14T07:01:08.935Z,4876
2016-03-14T07:02:40.156Z,5072
2016-03-14T07:03:08.940Z,5396
2016-03-14T07:04:09.114Z,5424
2016-03-14T07:05:15.461Z,5480
2016-03-14T07:06:09.292Z,5452
2016-03-14T07:07:21.733Z,5984
2016-03-14T07:08:15.501Z,6260
2016-03-14T07:09:09.003Z,6580
2016-03-14T07:10:21.772Z,6592
2016-03-14T07:11:21.914Z,6444
2016-03-14T07:12:09.183Z,6496
2016-03-14T07:13:09.138Z,6836
2016-03-14T07:15:11.613Z,6740
2016-03-14T07:15:49.582Z,6856
2016-03-14T07:16:23.757Z,6932
2016-03-14T07:17:55.102Z,6820
2016-03-14T07:18:30.216Z,6948
2016-03-14T07:19:23.858Z,7288
2016-03-14T07:20:43.252Z,6904
2016-03-14T07:21:24.379Z,6968
2016-03-14T07:23:52.103Z,6976
2016-03-14T07:24:52.560Z,7116
2016-03-14T07:26:02.124Z,7372
2016-03-14T07:27:07.848Z,7508
2016-03-14T07:28:05.317Z,7796
2016-03-14T07:29:17.431Z,8048
2016-03-14T07:30:14.903Z,8404
2016-03-14T07:30:49.340Z,8520
2016-03-14T07:31:49.218Z,8808
2016-03-14T07:32:49.253Z,9144
2016-03-14T07:34:52.508Z,9500
2016-03-14T07:35:05.070Z,9360
2016-03-14T07:36:05.417Z,9152
2016-03-14T07:37:11.439Z,9112
2016-03-14T07:38:05.423Z,9528
2016-03-14T07:39:17.911Z,9544
2016-03-14T07:40:05.349Z,9628
2016-03-14T07:41:05.180Z,9428
2016-03-14T07:42:05.433Z,9832
2016-03-14T07:43:05.155Z,9984
2016-03-14T07:44:05.283Z,10096
2016-03-14T07:45:11.569Z,10276
2016-03-14T07:46:05.225Z,10240
2016-03-14T07:47:24.449Z,10176
2016-03-14T07:48:17.999Z,10504
2016-03-14T07:50:46.457Z,10104
2016-03-14T07:51:20.726Z,9928
2016-03-14T07:52:52.057Z,10024
2016-03-14T07:53:33.513Z,10520
2016-03-14T07:54:20.796Z,10584
2016-03-14T07:55:33.518Z,9952
2016-03-14T07:56:33.567Z,10160
2016-03-14T07:57:20.882Z,10528
2016-03-14T07:58:40.056Z,10520
2016-03-14T07:59:21.669Z,10812
2016-03-14T08:01:30.378Z,10424
2016-03-14T08:02:56.067Z,10428
2016-03-14T08:03:31.851Z,10416
2016-03-14T08:05:33.060Z,10788
2016-03-14T08:05:45.639Z,10836
2016-03-14T08:06:45.794Z,10668
2016-03-14T08:07:58.391Z,10816
2016-03-14T08:08:52.549Z,10912
2016-03-14T08:09:58.803Z,11616
2016-03-14T08:10:45.992Z,11784
2016-03-14T08:12:05.652Z,12112
2016-03-14T08:13:04.919Z,11400
2016-03-14T08:14:17.409Z,10356
2016-03-14T08:15:11.443Z,10468
2016-03-14T08:16:11.461Z,10088
2016-03-14T08:17:17.136Z,10492
2016-03-14T08:17:46.027Z,10436
2016-03-14T08:18:45.826Z,10088
2016-03-14T08:19:59.344Z,9724
2016-03-14T08:20:46.612Z,9760
2016-03-14T08:22:05.287Z,10548
2016-03-14T08:22:48.946Z,10200
2016-03-14T08:24:11.811Z,9704
2016-03-14T08:24:45.889Z,9680
2016-03-14T08:26:17.254Z,9356
2016-03-14T08:26:52.317Z,9200
2016-03-14T08:27:45.976Z,8972
2016-03-14T08:28:52.290Z,9316
2016-03-14T08:29:46.215Z,9504
2016-03-14T08:30:46.014Z,9524
2016-03-14T08:31:52.564Z,9096
2016-03-14T08:32:46.598Z,9056
2016-03-14T08:33:58.773Z,8776
2016-03-14T08:34:52.322Z,8768
2016-03-14T08:36:12.265Z,8676
2016-03-14T08:36:45.984Z,8904
2016-03-14T08:37:46.346Z,8860
2016-03-14T08:38:52.427Z,8824
2016-03-14T08:39:46.398Z,8944
2016-03-14T08:40:52.620Z,8932
2016-03-14T08:41:59.139Z,9120
2016-03-14T08:42:46.453Z,9148
2016-03-14T08:44:05.456Z,9256
2016-03-14T08:44:47.631Z,9272
2016-03-14T08:46:05.461Z,9844
2016-03-14T08:46:49.292Z,10244
2016-03-14T08:48:48.985Z,10412
2016-03-14T08:49:27.535Z,10520
2016-03-14T08:50:02.488Z,10320
2016-03-14T08:51:01.850Z,9656
2016-03-14T08:52:02.430Z,9060
2016-03-14T08:53:01.855Z,8896
2016-03-14T08:54:14.704Z,9156
2016-03-14T08:55:01.892Z,9188
2016-03-14T08:56:27.085Z,8924
2016-03-14T08:57:02.757Z,8808
2016-03-14T08:58:34.231Z,8460
2016-03-14T08:59:14.749Z,8296
2016-03-14T09:00:01.999Z,8320
2016-03-14T09:01:27.879Z,8308
2016-03-14T09:02:14.742Z,8168
2016-03-14T09:03:33.322Z,8032
2016-03-14T09:04:21.262Z,7932
2016-03-14T09:05:03.059Z,7808
2016-03-14T09:07:14.895Z,7616
2016-03-14T09:08:33.914Z,7472
2016-03-14T09:09:27.713Z,7484
2016-03-14T09:10:14.763Z,7460
2016-03-14T09:12:24.221Z,7156
2016-03-14T09:13:43.630Z,7092
2016-03-14T09:14:30.758Z,7096
2016-03-14T09:15:18.214Z,7060
2016-03-14T09:16:43.732Z,6976
2016-03-14T09:17:18.672Z,7020
2016-03-14T09:19:20.866Z,6952
2016-03-14T09:19:33.428Z,6928
2016-03-14T09:20:33.540Z,6808
2016-03-14T09:21:33.668Z,6784
2016-03-14T09:22:33.467Z,6780
2016-03-14T09:23:39.798Z,6880
2016-03-14T09:24:46.362Z,6896
2016-03-14T09:25:34.632Z,6876
2016-03-14T09:26:33.556Z,6852
2016-03-14T09:27:53.106Z,6792
2016-03-14T09:28:33.608Z,6844
2016-03-14T09:30:36.254Z,6924
2016-03-14T09:30:49.051Z,6924
2016-03-14T09:31:48.928Z,6944
2016-03-14T09:33:01.901Z,7040
2016-03-14T09:33:49.215Z,7012
2016-03-14T09:35:14.689Z,7052
2016-03-14T09:35:49.611Z,7020
2016-03-14T09:37:15.304Z,7044
2016-03-14T09:37:49.898Z,7088
2016-03-14T09:38:49.042Z,7068
2016-03-14T09:39:52.200Z,7036
2016-03-14T09:40:49.062Z,7168
2016-03-14T09:42:01.847Z,7180
2016-03-14T09:43:01.850Z,7276
2016-03-14T09:44:52.667Z,7188
2016-03-14T09:45:52.780Z,7176
2016-03-14T09:46:52.485Z,7216
2016-03-14T09:47:52.691Z,7156
2016-03-14T09:48:52.537Z,7416
2016-03-14T09:49:58.836Z,7492
2016-03-14T09:50:52.621Z,7628
2016-03-14T09:52:05.482Z,7624
2016-03-14T09:52:52.799Z,7652
2016-03-14T09:54:57.038Z,7472
2016-03-14T09:55:57.024Z,7420
2016-03-14T09:57:09.920Z,7644
2016-03-14T09:57:57.232Z,7632
2016-03-14T09:59:16.910Z,7432
2016-03-14T10:00:09.801Z,7348
2016-03-14T10:01:03.320Z,7312
2016-03-14T10:01:57.119Z,7232
2016-03-14T10:03:09.981Z,7216
2016-03-14T10:03:57.390Z,7112
2016-03-14T10:05:23.348Z,7136
2016-03-14T10:05:57.754Z,7184
2016-03-14T10:07:28.441Z,7288
2016-03-14T10:07:57.144Z,7160
2016-03-14T10:08:57.461Z,7044
2016-03-14T10:09:57.197Z,6944
2016-03-14T10:11:03.763Z,6948
2016-03-14T10:11:57.890Z,6940
2016-03-14T10:12:57.221Z,7060
2016-03-14T10:13:57.317Z,6860
2016-03-14T10:14:57.524Z,6724
2016-03-14T10:15:57.572Z,6612
2016-03-14T10:16:57.497Z,6604
2016-03-14T10:18:03.859Z,6792
2016-03-14T10:18:57.924Z,6788
2016-03-14T10:20:10.287Z,6900
2016-03-14T10:20:57.585Z,6888
2016-03-14T10:22:54.591Z,7312
2016-03-14T10:23:10.404Z,7404
2016-03-14T10:24:07.235Z,7668
2016-03-14T10:25:07.206Z,7756
2016-03-14T10:26:20.040Z,7796
2016-03-14T10:27:07.837Z,7904
2016-03-14T10:28:07.261Z,8048
2016-03-14T10:29:20.251Z,7968
2016-03-14T10:30:07.876Z,8036
2016-03-14T10:31:26.694Z,8228
2016-03-14T10:32:13.697Z,8212
2016-03-14T10:33:26.559Z,8188
2016-03-14T10:34:20.140Z,7976
2016-03-14T10:35:07.796Z,7948
2016-03-14T10:36:07.736Z,7824
2016-03-14T10:37:07.441Z,7720
2016-03-14T10:38:07.803Z,7612
2016-03-14T10:39:07.619Z,7516
2016-03-14T10:40:07.434Z,7376
2016-03-14T10:41:07.874Z,7248
2016-03-14T10:42:07.580Z,7148
2016-03-14T10:43:07.739Z,7012
2016-03-14T10:44:07.789Z,6892
2016-03-14T10:45:07.947Z,6816
2016-03-14T10:46:07.841Z,6772
2016-03-14T10:47:19.799Z,6676
2016-03-14T10:48:07.815Z,6716
2016-03-14T10:49:27.055Z,6720
2016-03-14T10:50:10.930Z,6744
2016-03-14T10:51:11.432Z,6784
2016-03-14T10:52:11.013Z,6856
2016-03-14T10:53:12.390Z,6932
2016-03-14T10:54:11.003Z,6968
2016-03-14T10:55:30.914Z,7168
2016-03-14T10:56:11.039Z,7248
2016-03-14T10:57:11.308Z,7420
2016-03-14T10:58:11.514Z,7572
2016-03-14T10:59:11.688Z,7712
2016-03-14T11:00:12.725Z,7820
2016-03-14T11:01:23.854Z,7892
2016-03-14T11:02:11.166Z,7944
2016-03-14T11:03:11.153Z,7952
2016-03-14T11:04:11.234Z,7912
2016-03-14T11:05:11.174Z,7900
2016-03-14T11:06:23.929Z,7900
2016-03-14T11:07:11.882Z,7872
2016-03-14T11:08:23.998Z,7852
2016-03-14T11:09:11.295Z,7764
2016-03-14T11:10:12.484Z,7764
2016-03-14T11:11:12.331Z,7820
2016-03-14T11:12:24.289Z,7780
2016-03-14T11:13:12.745Z,7772
2016-03-14T11:15:52.642Z,7760
2016-03-14T11:17:19.319Z,7788
2016-03-14T11:18:05.631Z,7816
2016-03-14T11:19:56.152Z,7564
2016-03-14T11:20:53.717Z,7476
2016-03-14T11:22:05.848Z,7408
2016-03-14T11:22:54.350Z,7208
2016-03-14T11:23:54.024Z,6872
2016-03-14T11:25:05.480Z,6892
2016-03-14T11:25:52.827Z,7000
2016-03-14T11:27:12.158Z,7208
2016-03-14T11:27:52.832Z,7268
2016-03-14T11:29:12.054Z,7584
2016-03-14T11:29:52.619Z,7912
2016-03-14T11:32:08.360Z,8400
2016-03-14T11:33:08.549Z,8260
2016-03-14T11:34:09.318Z,7788
2016-03-14T11:35:21.151Z,7852
2016-03-14T11:36:08.338Z,7952
2016-03-14T11:37:33.890Z,8364
2016-03-14T11:38:08.218Z,8648
2016-03-14T11:40:10.818Z,9832
2016-03-14T11:40:23.836Z,9924
2016-03-14T11:41:24.090Z,10068
2016-03-14T11:42:23.982Z,10304
2016-03-14T11:43:24.172Z,10608
2016-03-14T11:44:31.019Z,10656
2016-03-14T11:45:24.381Z,10892
2016-03-14T11:46:25.775Z,11300
2016-03-14T11:47:31.792Z,11476
2016-03-14T11:48:24.733Z,11860
2016-03-14T11:50:21.504Z,11980
2016-03-14T11:50:40.832Z,12024
2016-03-14T11:51:36.084Z,11812
2016-03-14T11:52:34.306Z,11816
2016-03-14T11:53:35.371Z,11756
2016-03-14T11:54:47.554Z,11856
2016-03-14T11:55:35.251Z,11632
2016-03-14T11:57:00.868Z,11480
2016-03-14T11:57:36.080Z,11340
2016-03-14T11:58:34.548Z,10964
2016-03-14T11:59:53.873Z,10840
2016-03-14T12:00:41.716Z,10896
2016-03-14T12:02:00.652Z,10772
2016-03-14T12:02:54.385Z,11048
2016-03-14T12:04:06.181Z,11052
2016-03-14T12:05:05.995Z,10348
2016-03-14T12:05:34.511Z,10088
2016-03-14T12:06:34.435Z,9832
2016-03-14T12:07:47.937Z,9724
2016-03-14T12:08:34.891Z,9760
2016-03-14T12:09:54.018Z,10192
2016-03-14T12:10:35.646Z,10384
2016-03-14T12:13:10.855Z,9956
2016-03-14T12:13:45.746Z,9900
2016-03-14T12:14:45.187Z,9768
2016-03-14T12:15:44.736Z,9680
2016-03-14T12:16:57.848Z,9316
2016-03-14T12:17:45.319Z,9232
2016-03-14T12:18:45.055Z,9292
2016-03-14T12:19:51.417Z,9356
2016-03-14T12:20:45.232Z,9476
2016-03-14T12:22:04.907Z,10156
2016-03-14T12:22:46.096Z,10644
2016-03-14T12:24:17.024Z,11580
2016-03-14T12:24:48.337Z,11600
2016-03-14T12:26:11.762Z,11532
2016-03-14T12:26:47.498Z,11468
2016-03-14T12:27:46.329Z,10960
2016-03-14T12:29:25.163Z,11328
2016-03-14T12:29:45.523Z,11448
2016-03-14T12:31:24.231Z,11272
2016-03-14T12:31:59.465Z,11104
2016-03-14T12:32:46.593Z,10964
2016-03-14T12:34:47.942Z,10316
2016-03-14T12:35:01.770Z,10276
2016-03-14T12:36:03.459Z,10064
2016-03-14T12:37:20.637Z,9892
2016-03-14T12:38:05.106Z,9696
2016-03-14T12:39:02.672Z,9044
2016-03-14T12:40:07.925Z,8428
2016-03-14T12:41:05.334Z,8352
2016-03-14T12:42:02.633Z,9244
2016-03-14T12:43:15.151Z,11192
2016-03-14T12:44:02.122Z,12612
2016-03-14T12:45:15.406Z,13512
2016-03-14T12:46:02.690Z,13480
2016-03-14T12:47:03.364Z,12772
2016-03-14T12:48:03.477Z,11968
2016-03-14T12:49:02.229Z,11296
2016-03-14T12:50:21.469Z,10532
2016-03-14T12:51:24.597Z,10448
2016-03-14T12:52:28.021Z,10708
2016-03-14T12:54:38.558Z,10460
2016-03-14T12:55:18.592Z,10732
2016-03-14T12:56:20.877Z,11520
2016-03-14T12:57:19.066Z,12396
2016-03-14T12:58:19.522Z,12440
2016-03-14T12:59:22.243Z,11968
2016-03-14T13:00:34.606Z,11536
2016-03-14T13:01:20.139Z,11360
2016-03-14T13:02:21.064Z,11476
2016-03-14T13:03:19.660Z,11576
2016-03-14T13:04:39.053Z,11212
2016-03-14T13:05:20.415Z,10984
2016-03-14T13:06:44.668Z,10488
2016-03-14T13:07:38.686Z,10104
2016-03-14T13:08:51.628Z,10768
2016-03-14T13:09:32.926Z,11256
2016-03-14T13:10:20.242Z,11420
2016-03-14T13:11:18.589Z,11456
2016-03-14T13:12:37.919Z,11236
2016-03-14T13:13:18.844Z,11184
2016-03-14T13:14:18.736Z,11100
2016-03-14T13:15:25.474Z,11036
2016-03-14T13:17:29.542Z,10928
2016-03-14T13:18:43.216Z,11320
2016-03-14T13:19:43.063Z,11352
2016-03-14T13:20:44.018Z,10956
2016-03-14T13:21:55.912Z,10516
2016-03-14T13:23:01.680Z,10100
2016-03-14T13:23:43.276Z,9716
2016-03-14T13:25:54.282Z,9532
2016-03-14T13:27:07.910Z,10080
2016-03-14T13:27:54.349Z,10136
2016-03-14T13:28:54.166Z,9900
2016-03-14T13:29:54.277Z,9520
2016-03-14T13:31:00.607Z,9196
2016-03-14T13:31:55.017Z,8864
2016-03-14T13:33:13.457Z,8552
2016-03-14T13:33:54.382Z,8456
2016-03-14T13:35:46.418Z,8344
2016-03-14T13:36:12.231Z,8256
2016-03-14T13:37:15.515Z,8288
2016-03-14T13:38:12.111Z,8316
2016-03-14T13:39:12.270Z,8196
2016-03-14T13:40:12.382Z,8260
2016-03-14T13:41:24.826Z,8248
2016-03-14T13:42:12.170Z,8064
2016-03-14T13:43:31.612Z,7792
2016-03-14T13:44:12.128Z,7700
2016-03-14T13:45:12.411Z,7672
2016-03-14T13:46:13.836Z,7700
2016-03-14T13:47:12.808Z,7748
2016-03-14T13:48:15.497Z,7992
2016-03-14T13:49:25.128Z,8356
2016-03-14T13:50:18.819Z,8508
2016-03-14T13:51:12.787Z,8444
2016-03-14T13:53:15.964Z,8088
2016-03-14T13:54:28.783Z,8008
2016-03-14T13:55:41.800Z,8248
2016-03-14T13:56:16.519Z,8496
2016-03-14T13:58:18.402Z,9360
2016-03-14T13:58:31.496Z,9336
2016-03-14T13:59:31.546Z,9332
2016-03-14T14:00:37.563Z,9444
2016-03-14T14:01:31.363Z,9152
2016-03-14T14:02:31.584Z,8772
2016-03-14T14:03:32.728Z,8504
2016-03-14T14:04:31.543Z,8324
2016-03-14T14:05:50.765Z,8380
2016-03-14T14:06:34.976Z,8460
2016-03-14T14:09:15.621Z,8840
2016-03-14T14:09:44.405Z,8936
2016-03-14T14:10:44.752Z,9128
2016-03-14T14:11:44.676Z,9316
2016-03-14T14:12:44.476Z,9408
2016-03-14T14:13:44.495Z,9500
2016-03-14T14:14:44.528Z,9420
2016-03-14T14:15:46.047Z,9248
2016-03-14T14:16:45.346Z,9176
2016-03-14T14:17:45.771Z,8964
2016-03-14T14:18:45.195Z,8632
2016-03-14T14:19:46.854Z,8460
2016-03-14T14:20:59.154Z,8584
2016-03-14T14:21:45.672Z,8684
2016-03-14T14:22:44.925Z,8848
2016-03-14T14:23:45.787Z,8988
2016-03-14T14:24:45.508Z,9060
2016-03-14T14:25:45.668Z,9064
2016-03-14T14:26:57.498Z,9120
2016-03-14T14:27:57.704Z,9140
2016-03-14T14:28:48.768Z,9108
2016-03-14T14:30:11.193Z,8964
2016-03-14T14:30:46.337Z,8812
2016-03-14T14:33:01.265Z,8404
2016-03-14T14:35:31.053Z,8320
2016-03-14T14:36:12.022Z,8448
2016-03-14T14:38:14.168Z,8560
2016-03-14T14:38:27.749Z,8560
2016-03-14T14:39:27.471Z,8608
2016-03-14T14:40:29.286Z,8524
2016-03-14T14:41:35.992Z,8284
2016-03-14T14:42:47.900Z,8108